sensor_id;sensor_type;location;lat;lon;timestamp;temperature;humidity
13049;DHT22;6591;51.446;5.404;2023-09-30T00:01:52;12.40;99.90
13049;DHT22;6591;51.446;5.404;2023-09-30T00:04:22;12.40;99.90
13049;DHT22;6591;51.446;5.404;2023-09-30T00:06:51;13.40;99.90
13049;DHT22;6591;51.446;5.404;2023-09-30T00:09:19;12.50;99.90
13049;DHT22;6591;51.446;5.404;2023-09-30T00:11:46;12.50;99.90
13049;DHT22;6591;51.446;5.404;2023-09-30T00:14:13;13.70;99.90
13049;DHT22;6591;51.446;5.404;2023-09-30T00:16:41;13.70;99.90
13049;DHT22;6591;51.446;5.404;2023-09-30T00:19:09;12.60;99.90
13049;DHT22;6591;51.446;5.404;2023-09-30T00:21:37;12.60;99.90
13049;DHT22;6591;51.446;5.404;2023-09-30T00:24:05;12.70;99.90
13049;DHT22;6591;51.446;5.404;2023-09-30T00:26:33;12.70;99.90
13049;DHT22;6591;51.446;5.404;2023-09-30T00:29:00;12.70;99.90
13049;DHT22;6591;51.446;5.404;2023-09-30T00:31:31;12.70;99.90
13049;DHT22;6591;51.446;5.404;2023-09-30T00:33:59;14.10;99.90
13049;DHT22;6591;51.446;5.404;2023-09-30T00:36:27;12.70;99.90
13049;DHT22;6591;51.446;5.404;2023-09-30T00:38:55;12.80;99.90
13049;DHT22;6591;51.446;5.404;2023-09-30T00:41:22;11.10;99.90
13049;DHT22;6591;51.446;5.404;2023-09-30T00:43:50;13.80;99.90
13049;DHT22;6591;51.446;5.404;2023-09-30T00:46:26;12.90;99.90
13049;DHT22;6591;51.446;5.404;2023-09-30T00:48:58;12.90;99.90
13049;DHT22;6591;51.446;5.404;2023-09-30T00:51:27;12.90;99.90
13049;DHT22;6591;51.446;5.404;2023-09-30T00:53:58;12.90;99.90
13049;DHT22;6591;51.446;5.404;2023-09-30T00:56:28;13.00;99.90
13049;DHT22;6591;51.446;5.404;2023-09-30T00:58:57;13.00;99.90
13049;DHT22;6591;51.446;5.404;2023-09-30T01:01:30;13.00;99.90
13049;DHT22;6591;51.446;5.404;2023-09-30T01:03:59;13.00;99.90
13049;DHT22;6591;51.446;5.404;2023-09-30T01:06:32;12.90;99.90
13049;DHT22;6591;51.446;5.404;2023-09-30T01:09:00;13.00;99.90
13049;DHT22;6591;51.446;5.404;2023-09-30T01:11:28;11.70;99.90
13049;DHT22;6591;51.446;5.404;2023-09-30T01:13:57;12.90;99.90
13049;DHT22;6591;51.446;5.404;2023-09-30T01:16:25;13.00;99.90
13049;DHT22;6591;51.446;5.404;2023-09-30T01:18:55;13.00;99.90
13049;DHT22;6591;51.446;5.404;2023-09-30T01:21:24;12.90;99.90
13049;DHT22;6591;51.446;5.404;2023-09-30T01:23:56;12.90;99.90
13049;DHT22;6591;51.446;5.404;2023-09-30T01:26:24;12.80;99.90
13049;DHT22;6591;51.446;5.404;2023-09-30T01:28:52;13.30;99.90
13049;DHT22;6591;51.446;5.404;2023-09-30T01:31:23;12.70;99.90
13049;DHT22;6591;51.446;5.404;2023-09-30T01:33:53;12.80;99.90
13049;DHT22;6591;51.446;5.404;2023-09-30T01:36:23;12.70;99.90
13049;DHT22;6591;51.446;5.404;2023-09-30T01:38:51;12.70;99.90
13049;DHT22;6591;51.446;5.404;2023-09-30T01:41:22;12.70;99.90
13049;DHT22;6591;51.446;5.404;2023-09-30T01:43:50;13.90;99.90
13049;DHT22;6591;51.446;5.404;2023-09-30T01:46:20;12.50;99.90
13049;DHT22;6591;51.446;5.404;2023-09-30T01:48:49;10.80;99.90
13049;DHT22;6591;51.446;5.404;2023-09-30T01:51:18;12.60;99.90
13049;DHT22;6591;51.446;5.404;2023-09-30T01:53:45;12.60;99.90
13049;DHT22;6591;51.446;5.404;2023-09-30T01:56:16;12.70;99.90
13049;DHT22;6591;51.446;5.404;2023-09-30T01:58:44;13.60;99.90
13049;DHT22;6591;51.446;5.404;2023-09-30T02:01:11;12.50;99.90
13049;DHT22;6591;51.446;5.404;2023-09-30T02:03:38;12.50;99.90
13049;DHT22;6591;51.446;5.404;2023-09-30T02:06:07;12.40;99.90
13049;DHT22;6591;51.446;5.404;2023-09-30T02:08:35;12.40;99.90
13049;DHT22;6591;51.446;5.404;2023-09-30T02:11:03;11.10;99.90
13049;DHT22;6591;51.446;5.404;2023-09-30T02:13:35;12.40;99.90
13049;DHT22;6591;51.446;5.404;2023-09-30T02:16:03;12.30;99.90
13049;DHT22;6591;51.446;5.404;2023-09-30T02:18:31;12.30;99.90
13049;DHT22;6591;51.446;5.404;2023-09-30T02:21:01;12.30;99.90
13049;DHT22;6591;51.446;5.404;2023-09-30T02:23:30;12.30;99.90
13049;DHT22;6591;51.446;5.404;2023-09-30T02:25:59;12.20;99.90
13049;DHT22;6591;51.446;5.404;2023-09-30T02:28:28;12.30;99.90
13049;DHT22;6591;51.446;5.404;2023-09-30T02:30:56;12.30;99.90
13049;DHT22;6591;51.446;5.404;2023-09-30T02:33:24;12.30;99.90
13049;DHT22;6591;51.446;5.404;2023-09-30T02:35:54;12.30;99.90
13049;DHT22;6591;51.446;5.404;2023-09-30T02:38:22;12.30;99.90
13049;DHT22;6591;51.446;5.404;2023-09-30T02:40:53;12.30;99.90
13049;DHT22;6591;51.446;5.404;2023-09-30T02:43:22;12.20;99.90
13049;DHT22;6591;51.446;5.404;2023-09-30T02:45:51;12.20;99.90
13049;DHT22;6591;51.446;5.404;2023-09-30T02:48:21;11.00;99.90
13049;DHT22;6591;51.446;5.404;2023-09-30T02:50:49;11.70;99.90
13049;DHT22;6591;51.446;5.404;2023-09-30T02:53:18;10.60;99.90
13049;DHT22;6591;51.446;5.404;2023-09-30T02:55:45;12.10;99.90
13049;DHT22;6591;51.446;5.404;2023-09-30T02:58:14;12.10;99.90
13049;DHT22;6591;51.446;5.404;2023-09-30T03:00:41;10.60;99.90
13049;DHT22;6591;51.446;5.404;2023-09-30T03:03:09;13.80;99.90
13049;DHT22;6591;51.446;5.404;2023-09-30T03:05:37;12.00;99.90
13049;DHT22;6591;51.446;5.404;2023-09-30T03:08:04;12.00;99.90
13049;DHT22;6591;51.446;5.404;2023-09-30T03:10:32;12.00;99.90
13049;DHT22;6591;51.446;5.404;2023-09-30T03:13:00;12.60;99.90
13049;DHT22;6591;51.446;5.404;2023-09-30T03:15:30;12.10;99.90
13049;DHT22;6591;51.446;5.404;2023-09-30T03:17:59;12.10;99.90
13049;DHT22;6591;51.446;5.404;2023-09-30T03:20:27;13.30;99.90
13049;DHT22;6591;51.446;5.404;2023-09-30T03:22:56;12.10;99.90
13049;DHT22;6591;51.446;5.404;2023-09-30T03:25:24;12.20;99.90
13049;DHT22;6591;51.446;5.404;2023-09-30T03:27:53;12.30;99.90
13049;DHT22;6591;51.446;5.404;2023-09-30T03:30:25;12.20;99.90
13049;DHT22;6591;51.446;5.404;2023-09-30T03:32:53;12.20;99.90
13049;DHT22;6591;51.446;5.404;2023-09-30T03:35:23;12.20;99.90
13049;DHT22;6591;51.446;5.404;2023-09-30T03:37:51;12.20;99.90
13049;DHT22;6591;51.446;5.404;2023-09-30T03:40:21;13.20;99.90
13049;DHT22;6591;51.446;5.404;2023-09-30T03:42:55;12.30;99.90
13049;DHT22;6591;51.446;5.404;2023-09-30T03:45:22;12.30;99.90
13049;DHT22;6591;51.446;5.404;2023-09-30T03:47:50;13.00;99.90
13049;DHT22;6591;51.446;5.404;2023-09-30T03:50:20;12.20;99.90
13049;DHT22;6591;51.446;5.404;2023-09-30T03:53:01;12.20;99.90
13049;DHT22;6591;51.446;5.404;2023-09-30T03:55:32;12.30;99.90
13049;DHT22;6591;51.446;5.404;2023-09-30T03:58:00;12.30;99.90
13049;DHT22;6591;51.446;5.404;2023-09-30T04:00:30;14.30;99.90
13049;DHT22;6591;51.446;5.404;2023-09-30T04:02:59;12.30;99.90
13049;DHT22;6591;51.446;5.404;2023-09-30T04:05:26;12.50;99.90
13049;DHT22;6591;51.446;5.404;2023-09-30T04:08:00;12.30;99.90
13049;DHT22;6591;51.446;5.404;2023-09-30T04:10:27;12.90;99.90
13049;DHT22;6591;51.446;5.404;2023-09-30T04:12:59;12.30;99.90
13049;DHT22;6591;51.446;5.404;2023-09-30T04:15:27;12.80;99.90
13049;DHT22;6591;51.446;5.404;2023-09-30T04:17:55;12.30;99.90
13049;DHT22;6591;51.446;5.404;2023-09-30T04:20:24;12.30;99.90
13049;DHT22;6591;51.446;5.404;2023-09-30T04:22:55;12.40;99.90
13049;DHT22;6591;51.446;5.404;2023-09-30T04:25:25;13.70;99.90
13049;DHT22;6591;51.446;5.404;2023-09-30T04:27:55;12.30;99.90
13049;DHT22;6591;51.446;5.404;2023-09-30T04:30:22;12.40;99.90
13049;DHT22;6591;51.446;5.404;2023-09-30T04:32:50;12.30;99.90
13049;DHT22;6591;51.446;5.404;2023-09-30T04:35:17;12.30;99.90
13049;DHT22;6591;51.446;5.404;2023-09-30T04:37:44;12.30;99.90
13049;DHT22;6591;51.446;5.404;2023-09-30T04:40:12;12.40;99.90
13049;DHT22;6591;51.446;5.404;2023-09-30T04:42:43;12.30;99.90
13049;DHT22;6591;51.446;5.404;2023-09-30T04:45:14;12.30;99.90
13049;DHT22;6591;51.446;5.404;2023-09-30T04:47:47;12.90;99.90
13049;DHT22;6591;51.446;5.404;2023-09-30T04:50:18;13.10;99.90
13049;DHT22;6591;51.446;5.404;2023-09-30T04:52:52;12.30;99.90
13049;DHT22;6591;51.446;5.404;2023-09-30T04:55:21;12.20;99.90
13049;DHT22;6591;51.446;5.404;2023-09-30T04:57:50;12.20;99.90
13049;DHT22;6591;51.446;5.404;2023-09-30T05:00:20;12.20;99.90
13049;DHT22;6591;51.446;5.404;2023-09-30T05:02:54;12.20;99.90
13049;DHT22;6591;51.446;5.404;2023-09-30T05:05:22;12.20;99.90
13049;DHT22;6591;51.446;5.404;2023-09-30T05:07:50;11.70;99.90
13049;DHT22;6591;51.446;5.404;2023-09-30T05:10:17;12.20;99.90
13049;DHT22;6591;51.446;5.404;2023-09-30T05:12:44;12.20;99.90
13049;DHT22;6591;51.446;5.404;2023-09-30T05:15:15;14.10;99.90
13049;DHT22;6591;51.446;5.404;2023-09-30T05:17:44;12.10;99.90
13049;DHT22;6591;51.446;5.404;2023-09-30T05:20:12;12.20;99.90
13049;DHT22;6591;51.446;5.404;2023-09-30T05:22:40;13.60;99.90
13049;DHT22;6591;51.446;5.404;2023-09-30T05:25:10;12.20;99.90
13049;DHT22;6591;51.446;5.404;2023-09-30T05:27:38;12.20;99.90
13049;DHT22;6591;51.446;5.404;2023-09-30T05:30:06;12.10;99.90
13049;DHT22;6591;51.446;5.404;2023-09-30T05:32:34;12.10;99.90
13049;DHT22;6591;51.446;5.404;2023-09-30T05:35:06;13.20;99.90
13049;DHT22;6591;51.446;5.404;2023-09-30T05:37:41;12.10;99.90
13049;DHT22;6591;51.446;5.404;2023-09-30T05:40:10;12.10;99.90
13049;DHT22;6591;51.446;5.404;2023-09-30T05:42:50;12.10;99.90
13049;DHT22;6591;51.446;5.404;2023-09-30T05:45:18;12.00;99.90
13049;DHT22;6591;51.446;5.404;2023-09-30T05:47:45;12.00;99.90
13049;DHT22;6591;51.446;5.404;2023-09-30T05:50:18;12.00;99.90
13049;DHT22;6591;51.446;5.404;2023-09-30T05:52:55;12.00;99.90
13049;DHT22;6591;51.446;5.404;2023-09-30T05:55:23;12.00;99.90
13049;DHT22;6591;51.446;5.404;2023-09-30T05:57:53;12.80;99.90
13049;DHT22;6591;51.446;5.404;2023-09-30T06:00:22;11.90;99.90
13049;DHT22;6591;51.446;5.404;2023-09-30T06:02:57;13.50;99.90
13049;DHT22;6591;51.446;5.404;2023-09-30T06:05:25;11.90;99.90
13049;DHT22;6591;51.446;5.404;2023-09-30T06:07:53;13.90;99.90
13049;DHT22;6591;51.446;5.404;2023-09-30T06:10:24;11.50;99.90
13049;DHT22;6591;51.446;5.404;2023-09-30T06:12:53;13.60;99.90
13049;DHT22;6591;51.446;5.404;2023-09-30T06:15:25;12.00;99.90
13049;DHT22;6591;51.446;5.404;2023-09-30T06:17:54;12.00;99.90
13049;DHT22;6591;51.446;5.404;2023-09-30T06:20:23;12.10;99.90
13049;DHT22;6591;51.446;5.404;2023-09-30T06:22:57;12.10;99.90
13049;DHT22;6591;51.446;5.404;2023-09-30T06:25:25;12.20;99.90
13049;DHT22;6591;51.446;5.404;2023-09-30T06:27:52;12.30;99.90
13049;DHT22;6591;51.446;5.404;2023-09-30T06:30:22;12.30;99.90
13049;DHT22;6591;51.446;5.404;2023-09-30T06:32:58;12.40;99.90
13049;DHT22;6591;51.446;5.404;2023-09-30T06:35:32;14.40;99.90
13049;DHT22;6591;51.446;5.404;2023-09-30T06:38:07;12.50;99.90
13049;DHT22;6591;51.446;5.404;2023-09-30T06:40:34;13.40;99.90
13049;DHT22;6591;51.446;5.404;2023-09-30T06:43:07;12.70;99.90
13049;DHT22;6591;51.446;5.404;2023-09-30T06:45:36;14.90;99.90
13049;DHT22;6591;51.446;5.404;2023-09-30T06:48:11;12.80;99.90
13049;DHT22;6591;51.446;5.404;2023-09-30T06:50:44;13.60;99.90
13049;DHT22;6591;51.446;5.404;2023-09-30T06:53:12;13.00;99.90
13049;DHT22;6591;51.446;5.404;2023-09-30T06:55:40;13.00;99.90
13049;DHT22;6591;51.446;5.404;2023-09-30T06:58:07;13.20;99.90
13049;DHT22;6591;51.446;5.404;2023-09-30T07:00:38;13.20;99.90
13049;DHT22;6591;51.446;5.404;2023-09-30T07:03:08;14.50;99.90
13049;DHT22;6591;51.446;5.404;2023-09-30T07:05:40;13.40;99.90
13049;DHT22;6591;51.446;5.404;2023-09-30T07:08:07;13.50;99.90
13049;DHT22;6591;51.446;5.404;2023-09-30T07:10:35;14.80;99.90
13049;DHT22;6591;51.446;5.404;2023-09-30T07:13:03;13.70;99.90
13049;DHT22;6591;51.446;5.404;2023-09-30T07:15:33;13.90;99.90
13049;DHT22;6591;51.446;5.404;2023-09-30T07:18:01;14.00;99.90
13049;DHT22;6591;51.446;5.404;2023-09-30T07:20:29;14.20;99.90
13049;DHT22;6591;51.446;5.404;2023-09-30T07:23:00;15.00;99.90
13049;DHT22;6591;51.446;5.404;2023-09-30T07:25:44;14.60;99.90
13049;DHT22;6591;51.446;5.404;2023-09-30T07:28:11;14.70;99.90
13049;DHT22;6591;51.446;5.404;2023-09-30T07:30:40;14.90;99.90
13049;DHT22;6591;51.446;5.404;2023-09-30T07:33:08;15.20;99.90
13049;DHT22;6591;51.446;5.404;2023-09-30T07:35:37;15.40;99.90
13049;DHT22;6591;51.446;5.404;2023-09-30T07:38:06;15.50;99.90
13049;DHT22;6591;51.446;5.404;2023-09-30T07:40:33;15.70;99.90
13049;DHT22;6591;51.446;5.404;2023-09-30T07:43:01;15.90;99.90
13049;DHT22;6591;51.446;5.404;2023-09-30T07:45:31;16.00;99.90
13049;DHT22;6591;51.446;5.404;2023-09-30T07:47:59;16.20;99.90
13049;DHT22;6591;51.446;5.404;2023-09-30T07:50:26;16.40;99.90
13049;DHT22;6591;51.446;5.404;2023-09-30T07:52:53;16.50;99.90
13049;DHT22;6591;51.446;5.404;2023-09-30T07:55:21;16.70;99.90
13049;DHT22;6591;51.446;5.404;2023-09-30T07:57:48;17.50;99.90
13049;DHT22;6591;51.446;5.404;2023-09-30T08:00:15;17.00;99.90
13049;DHT22;6591;51.446;5.404;2023-09-30T08:02:44;17.20;99.90
13049;DHT22;6591;51.446;5.404;2023-09-30T08:05:12;17.40;99.90
13049;DHT22;6591;51.446;5.404;2023-09-30T08:07:40;17.50;99.90
13049;DHT22;6591;51.446;5.404;2023-09-30T08:10:08;17.70;99.90
13049;DHT22;6591;51.446;5.404;2023-09-30T08:12:41;17.90;99.90
13049;DHT22;6591;51.446;5.404;2023-09-30T08:15:09;18.00;99.90
13049;DHT22;6591;51.446;5.404;2023-09-30T08:17:39;18.20;99.90
13049;DHT22;6591;51.446;5.404;2023-09-30T08:20:07;18.30;99.90
13049;DHT22;6591;51.446;5.404;2023-09-30T08:22:36;18.50;99.90
13049;DHT22;6591;51.446;5.404;2023-09-30T08:25:05;19.00;99.90
13049;DHT22;6591;51.446;5.404;2023-09-30T08:27:33;18.80;99.90
13049;DHT22;6591;51.446;5.404;2023-09-30T08:30:01;18.90;99.90
13049;DHT22;6591;51.446;5.404;2023-09-30T08:32:35;19.10;99.90
13049;DHT22;6591;51.446;5.404;2023-09-30T08:35:04;19.50;99.90
13049;DHT22;6591;51.446;5.404;2023-09-30T08:37:32;19.40;99.90
13049;DHT22;6591;51.446;5.404;2023-09-30T08:40:00;19.50;99.90
13049;DHT22;6591;51.446;5.404;2023-09-30T08:42:27;19.60;99.90
13049;DHT22;6591;51.446;5.404;2023-09-30T08:45:00;19.40;99.90
13049;DHT22;6591;51.446;5.404;2023-09-30T08:47:28;19.70;99.90
13049;DHT22;6591;51.446;5.404;2023-09-30T08:49:59;19.90;99.90
13049;DHT22;6591;51.446;5.404;2023-09-30T08:52:37;20.00;99.90
13049;DHT22;6591;51.446;5.404;2023-09-30T08:55:08;20.20;99.90
13049;DHT22;6591;51.446;5.404;2023-09-30T08:57:42;18.90;99.90
13049;DHT22;6591;51.446;5.404;2023-09-30T09:00:12;20.50;99.90
13049;DHT22;6591;51.446;5.404;2023-09-30T09:02:41;20.70;99.90
13049;DHT22;6591;51.446;5.404;2023-09-30T09:05:09;20.80;99.90
13049;DHT22;6591;51.446;5.404;2023-09-30T09:07:36;20.90;99.90
13049;DHT22;6591;51.446;5.404;2023-09-30T09:10:10;21.00;99.90
13049;DHT22;6591;51.446;5.404;2023-09-30T09:12:41;21.10;99.90
13049;DHT22;6591;51.446;5.404;2023-09-30T09:15:22;21.20;99.90
13049;DHT22;6591;51.446;5.404;2023-09-30T09:17:51;21.30;99.90
13049;DHT22;6591;51.446;5.404;2023-09-30T09:20:28;21.30;99.90
13049;DHT22;6591;51.446;5.404;2023-09-30T09:22:56;21.40;99.90
13049;DHT22;6591;51.446;5.404;2023-09-30T09:25:25;21.40;99.90
13049;DHT22;6591;51.446;5.404;2023-09-30T09:27:52;22.40;99.90
13049;DHT22;6591;51.446;5.404;2023-09-30T09:30:25;21.50;99.90
13049;DHT22;6591;51.446;5.404;2023-09-30T09:32:59;21.50;99.90
13049;DHT22;6591;51.446;5.404;2023-09-30T09:35:28;21.50;99.90
13049;DHT22;6591;51.446;5.404;2023-09-30T09:37:58;21.50;99.90
13049;DHT22;6591;51.446;5.404;2023-09-30T09:40:32;21.50;99.90
13049;DHT22;6591;51.446;5.404;2023-09-30T09:43:02;21.40;99.90
13049;DHT22;6591;51.446;5.404;2023-09-30T09:45:37;21.50;99.90
13049;DHT22;6591;51.446;5.404;2023-09-30T09:48:05;21.50;99.90
13049;DHT22;6591;51.446;5.404;2023-09-30T09:50:34;21.60;99.90
13049;DHT22;6591;51.446;5.404;2023-09-30T09:53:05;21.70;99.90
13049;DHT22;6591;51.446;5.404;2023-09-30T09:55:36;21.80;99.90
13049;DHT22;6591;51.446;5.404;2023-09-30T09:58:07;22.00;99.90
13049;DHT22;6591;51.446;5.404;2023-09-30T10:00:38;22.00;99.90
13049;DHT22;6591;51.446;5.404;2023-09-30T10:03:07;22.20;99.90
13049;DHT22;6591;51.446;5.404;2023-09-30T10:05:35;22.30;99.90
13049;DHT22;6591;51.446;5.404;2023-09-30T10:08:10;22.40;99.90
13049;DHT22;6591;51.446;5.404;2023-09-30T10:10:42;22.50;99.90
13049;DHT22;6591;51.446;5.404;2023-09-30T10:19:12;22.90;99.90
13049;DHT22;6591;51.446;5.404;2023-09-30T10:24:57;23.20;99.90
13049;DHT22;6591;51.446;5.404;2023-09-30T10:30:06;23.40;99.90
13049;DHT22;6591;51.446;5.404;2023-09-30T10:35:41;23.40;99.90
13049;DHT22;6591;51.446;5.404;2023-09-30T10:40:57;23.30;99.90
13049;DHT22;6591;51.446;5.404;2023-09-30T10:43:31;23.50;99.90
13049;DHT22;6591;51.446;5.404;2023-09-30T10:46:00;23.50;99.90
13049;DHT22;6591;51.446;5.404;2023-09-30T10:50:59;23.60;99.90
13049;DHT22;6591;51.446;5.404;2023-09-30T10:53:54;23.70;99.90
13049;DHT22;6591;51.446;5.404;2023-09-30T10:56:32;23.70;99.90
13049;DHT22;6591;51.446;5.404;2023-09-30T10:59:01;23.70;99.90
13049;DHT22;6591;51.446;5.404;2023-09-30T11:01:34;23.70;99.90
13049;DHT22;6591;51.446;5.404;2023-09-30T11:04:03;23.70;99.90
13049;DHT22;6591;51.446;5.404;2023-09-30T11:06:32;24.50;99.90
13049;DHT22;6591;51.446;5.404;2023-09-30T11:09:01;23.70;99.90
13049;DHT22;6591;51.446;5.404;2023-09-30T11:11:40;23.70;99.90
13049;DHT22;6591;51.446;5.404;2023-09-30T11:16:48;23.90;99.90
13049;DHT22;6591;51.446;5.404;2023-09-30T11:19:21;23.90;99.90
13049;DHT22;6591;51.446;5.404;2023-09-30T11:21:53;23.90;99.90
13049;DHT22;6591;51.446;5.404;2023-09-30T11:24:22;23.70;99.90
13049;DHT22;6591;51.446;5.404;2023-09-30T11:26:54;23.70;99.90
13049;DHT22;6591;51.446;5.404;2023-09-30T11:29:23;23.70;99.90
13049;DHT22;6591;51.446;5.404;2023-09-30T11:31:51;23.60;99.90
13049;DHT22;6591;51.446;5.404;2023-09-30T11:34:19;23.70;99.90
13049;DHT22;6591;51.446;5.404;2023-09-30T11:36:53;23.70;99.90
13049;DHT22;6591;51.446;5.404;2023-09-30T11:39:30;23.70;99.90
13049;DHT22;6591;51.446;5.404;2023-09-30T11:41:58;23.70;99.80
13049;DHT22;6591;51.446;5.404;2023-09-30T11:44:27;23.70;99.90
13049;DHT22;6591;51.446;5.404;2023-09-30T11:46:56;23.70;99.90
13049;DHT22;6591;51.446;5.404;2023-09-30T11:52:12;23.80;99.90
13049;DHT22;6591;51.446;5.404;2023-09-30T11:54:44;24.00;99.50
13049;DHT22;6591;51.446;5.404;2023-09-30T11:57:15;24.10;99.90
13049;DHT22;6591;51.446;5.404;2023-09-30T11:59:45;24.30;99.50
13049;DHT22;6591;51.446;5.404;2023-09-30T12:02:16;24.50;99.70
13049;DHT22;6591;51.446;5.404;2023-09-30T12:04:45;24.80;99.50
13049;DHT22;6591;51.446;5.404;2023-09-30T12:07:16;24.90;98.90
13049;DHT22;6591;51.446;5.404;2023-09-30T12:09:43;25.20;98.50
13049;DHT22;6591;51.446;5.404;2023-09-30T12:12:10;25.40;98.40
13049;DHT22;6591;51.446;5.404;2023-09-30T12:14:39;25.60;98.10
13049;DHT22;6591;51.446;5.404;2023-09-30T12:17:06;25.60;97.70
13049;DHT22;6591;51.446;5.404;2023-09-30T12:19:39;25.60;97.30
13049;DHT22;6591;51.446;5.404;2023-09-30T12:22:09;25.60;97.10
13049;DHT22;6591;51.446;5.404;2023-09-30T12:24:37;25.70;97.00
13049;DHT22;6591;51.446;5.404;2023-09-30T12:27:06;25.60;96.90
13049;DHT22;6591;51.446;5.404;2023-09-30T12:29:33;25.60;96.70
13049;DHT22;6591;51.446;5.404;2023-09-30T12:32:01;25.60;96.80
13049;DHT22;6591;51.446;5.404;2023-09-30T12:34:32;25.60;97.00
13049;DHT22;6591;51.446;5.404;2023-09-30T12:37:00;25.60;97.10
13049;DHT22;6591;51.446;5.404;2023-09-30T12:39:27;25.60;96.90
13049;DHT22;6591;51.446;5.404;2023-09-30T12:41:58;25.60;96.80
13049;DHT22;6591;51.446;5.404;2023-09-30T12:44:25;25.60;96.40
13049;DHT22;6591;51.446;5.404;2023-09-30T12:46:53;25.60;96.60
13049;DHT22;6591;51.446;5.404;2023-09-30T12:49:21;25.70;96.70
13049;DHT22;6591;51.446;5.404;2023-09-30T12:51:48;25.70;96.60
13049;DHT22;6591;51.446;5.404;2023-09-30T12:54:15;25.70;96.10
13049;DHT22;6591;51.446;5.404;2023-09-30T12:56:45;25.70;95.70
13049;DHT22;6591;51.446;5.404;2023-09-30T12:59:14;25.70;95.80
13049;DHT22;6591;51.446;5.404;2023-09-30T13:01:41;25.70;95.20
13049;DHT22;6591;51.446;5.404;2023-09-30T13:04:08;25.60;95.20
13049;DHT22;6591;51.446;5.404;2023-09-30T13:06:36;25.60;95.10
13049;DHT22;6591;51.446;5.404;2023-09-30T13:09:06;25.50;95.00
13049;DHT22;6591;51.446;5.404;2023-09-30T13:11:36;25.50;95.00
13049;DHT22;6591;51.446;5.404;2023-09-30T13:14:04;25.50;95.00
13049;DHT22;6591;51.446;5.404;2023-09-30T13:16:31;25.50;95.20
13049;DHT22;6591;51.446;5.404;2023-09-30T13:18:59;25.50;95.10
13049;DHT22;6591;51.446;5.404;2023-09-30T13:21:27;25.60;95.10
13049;DHT22;6591;51.446;5.404;2023-09-30T13:23:54;25.60;95.10
13049;DHT22;6591;51.446;5.404;2023-09-30T13:26:21;25.60;94.90
13049;DHT22;6591;51.446;5.404;2023-09-30T13:28:48;25.60;94.60
13049;DHT22;6591;51.446;5.404;2023-09-30T13:31:16;25.60;94.40
13049;DHT22;6591;51.446;5.404;2023-09-30T13:33:43;25.60;94.20
13049;DHT22;6591;51.446;5.404;2023-09-30T13:36:11;25.50;94.30
13049;DHT22;6591;51.446;5.404;2023-09-30T13:38:39;25.50;94.60
13049;DHT22;6591;51.446;5.404;2023-09-30T13:41:06;25.40;94.70
13049;DHT22;6591;51.446;5.404;2023-09-30T13:43:33;25.50;94.90
13049;DHT22;6591;51.446;5.404;2023-09-30T13:46:07;25.50;95.00
13049;DHT22;6591;51.446;5.404;2023-09-30T13:48:34;25.50;94.00
13049;DHT22;6591;51.446;5.404;2023-09-30T13:51:10;25.50;94.30
13049;DHT22;6591;51.446;5.404;2023-09-30T13:53:38;25.50;93.60
13049;DHT22;6591;51.446;5.404;2023-09-30T13:56:06;25.50;94.20
13049;DHT22;6591;51.446;5.404;2023-09-30T13:58:34;25.40;94.10
13049;DHT22;6591;51.446;5.404;2023-09-30T14:01:01;25.40;94.30
13049;DHT22;6591;51.446;5.404;2023-09-30T14:03:31;25.50;94.30
13049;DHT22;6591;51.446;5.404;2023-09-30T14:05:59;25.50;94.40
13049;DHT22;6591;51.446;5.404;2023-09-30T14:08:26;25.60;94.40
13049;DHT22;6591;51.446;5.404;2023-09-30T14:10:53;25.60;94.50
13049;DHT22;6591;51.446;5.404;2023-09-30T14:13:20;25.70;94.40
13049;DHT22;6591;51.446;5.404;2023-09-30T14:15:47;25.80;94.30
13049;DHT22;6591;51.446;5.404;2023-09-30T14:18:14;25.80;94.00
13049;DHT22;6591;51.446;5.404;2023-09-30T14:20:42;26.30;94.00
13049;DHT22;6591;51.446;5.404;2023-09-30T14:23:09;25.90;93.60
13049;DHT22;6591;51.446;5.404;2023-09-30T14:25:36;25.90;93.70
13049;DHT22;6591;51.446;5.404;2023-09-30T14:28:04;26.00;93.90
13049;DHT22;6591;51.446;5.404;2023-09-30T14:30:31;26.00;93.80
13049;DHT22;6591;51.446;5.404;2023-09-30T14:33:00;26.00;93.60
13049;DHT22;6591;51.446;5.404;2023-09-30T14:35:28;26.10;93.60
13049;DHT22;6591;51.446;5.404;2023-09-30T14:37:56;26.10;93.60
13049;DHT22;6591;51.446;5.404;2023-09-30T14:40:24;26.10;93.60
13049;DHT22;6591;51.446;5.404;2023-09-30T14:42:51;26.10;93.60
13049;DHT22;6591;51.446;5.404;2023-09-30T14:45:19;26.10;93.20
13049;DHT22;6591;51.446;5.404;2023-09-30T14:47:48;26.10;92.90
13049;DHT22;6591;51.446;5.404;2023-09-30T14:50:15;26.00;92.90
13049;DHT22;6591;51.446;5.404;2023-09-30T14:52:42;26.00;92.60
13049;DHT22;6591;51.446;5.404;2023-09-30T14:55:10;25.90;92.50
13049;DHT22;6591;51.446;5.404;2023-09-30T14:57:37;25.80;92.60
13049;DHT22;6591;51.446;5.404;2023-09-30T15:00:05;25.80;92.80
13049;DHT22;6591;51.446;5.404;2023-09-30T15:02:33;25.70;92.80
13049;DHT22;6591;51.446;5.404;2023-09-30T15:05:00;25.60;92.90
13049;DHT22;6591;51.446;5.404;2023-09-30T15:07:28;25.60;92.90
13049;DHT22;6591;51.446;5.404;2023-09-30T15:09:55;25.60;92.90
13049;DHT22;6591;51.446;5.404;2023-09-30T15:12:22;25.50;92.90
13049;DHT22;6591;51.446;5.404;2023-09-30T15:14:49;25.50;92.80
13049;DHT22;6591;51.446;5.404;2023-09-30T15:17:18;25.40;92.80
13049;DHT22;6591;51.446;5.404;2023-09-30T15:19:45;25.40;92.90
13049;DHT22;6591;51.446;5.404;2023-09-30T15:22:13;25.30;92.90
13049;DHT22;6591;51.446;5.404;2023-09-30T15:24:41;25.20;92.90
13049;DHT22;6591;51.446;5.404;2023-09-30T15:27:08;25.20;92.90
13049;DHT22;6591;51.446;5.404;2023-09-30T15:29:35;25.10;92.80
13049;DHT22;6591;51.446;5.404;2023-09-30T15:32:03;24.90;92.90
13049;DHT22;6591;51.446;5.404;2023-09-30T15:34:32;24.90;92.90
13049;DHT22;6591;51.446;5.404;2023-09-30T15:36:59;24.80;92.90
13049;DHT22;6591;51.446;5.404;2023-09-30T15:39:26;24.60;93.10
13049;DHT22;6591;51.446;5.404;2023-09-30T15:41:53;24.50;93.20
13049;DHT22;6591;51.446;5.404;2023-09-30T15:44:20;24.50;93.40
13049;DHT22;6591;51.446;5.404;2023-09-30T15:46:47;24.40;93.50
13049;DHT22;6591;51.446;5.404;2023-09-30T15:49:14;24.30;93.70
13049;DHT22;6591;51.446;5.404;2023-09-30T15:51:41;24.10;93.60
13049;DHT22;6591;51.446;5.404;2023-09-30T15:54:09;24.20;93.60
13049;DHT22;6591;51.446;5.404;2023-09-30T15:56:36;24.20;93.70
13049;DHT22;6591;51.446;5.404;2023-09-30T15:59:21;24.10;93.80
13049;DHT22;6591;51.446;5.404;2023-09-30T16:01:48;24.00;93.90
13049;DHT22;6591;51.446;5.404;2023-09-30T16:04:16;24.00;94.00
13049;DHT22;6591;51.446;5.404;2023-09-30T16:06:43;24.00;94.00
13049;DHT22;6591;51.446;5.404;2023-09-30T16:09:10;23.40;93.80
13049;DHT22;6591;51.446;5.404;2023-09-30T16:11:37;23.80;93.90
13049;DHT22;6591;51.446;5.404;2023-09-30T16:14:04;23.70;93.90
13049;DHT22;6591;51.446;5.404;2023-09-30T16:16:32;23.60;94.20
13049;DHT22;6591;51.446;5.404;2023-09-30T16:19:00;23.50;94.00
13049;DHT22;6591;51.446;5.404;2023-09-30T16:21:27;23.40;93.80
13049;DHT22;6591;51.446;5.404;2023-09-30T16:23:55;23.40;93.90